EPKK

John Paul II International Kraków-Balice Airport

Kraków, Poland
METAR EPKK 211800Z 22005KT 9999 FEW040CB 27/17 Q1007
Observed Flight Rules
Jun-21 @ 18:00 UTC (14 minutes ago) Visual Flight Rules
Wind Visibility Clouds
220° at 5 knots 10,000+ meters
  • Few at 4,000' AGL
Temperatures Readings
Current 27°C / 81°F
Dewpoint 17°C / 63°F
Humidity 54%
Altimeter 29.73" Hg
Pressure 1007 hPa
Elevation 237
METAR EPKK 211800Z 22005KT 9999 FEW040CB 27/17 Q1007
Observed Flight Rules
Jun-21 @ 18:00 UTC
(14 minutes ago)
VFR
Wind Visibility
220° at 5 knots 10,000+ meters
Clouds
  • Few at 4,000' AGL
Temperature Dewpoint
27°C / 81°F 17°C / 63°F
Humidity Altimeter Pressure
54% 29.73" Hg 1007 hPa